METAR Data
IDs: Format: Raw Decoded Include TAF

Data at: 0158 UTC 20 Jan 2022

KFNL 200156Z 14005KT 10SM UP OVC008 M07/M09 A3034 RMK AO2 SNB31E40 CIG 005V011 SLP317 P0000 T10721089 FZRANO
KFNL 200148Z 15005KT 10SM UP SCT006 OVC011 M07/M09 A3034 RMK AO2 SNB31E40 P0000 FZRANO
KFNL 200128Z 14006KT 10SM UP BKN006 OVC012 M07/M08 A3033 RMK AO2 CIG 004V009 P0000 FZRANO
KFNL 200120Z 15006KT 9SM UP OVC004 M07/M08 A3033 RMK AO2 P0000 FZRANO
KFNL 200056Z 15006KT 9SM UP OVC006 M07/M08 A3033 RMK AO2 SNB34E43 SLP310 P0000 T10721083 FZRANO
KFNL 200008Z 13006KT 7SM UP BKN006 OVC011 M07/M08 A3031 RMK AO2 CIG 005V008 P0000 FZRANO
KFNL 192356Z 13007KT 6SM UP BR BKN005 OVC011 M07/M08 A3031 RMK AO2 UPE29B45SNB35E45 CIG 004V009 SLP304 P0000 60000 T10721083 11056 21072 53010 FZRANO
KFNL 192256Z 14005KT 6SM UP BR OVC008 M07/M08 A3030 RMK AO2 SLP298 P0000 T10721083 FZRANO
KFNL 192156Z 10006KT 8SM UP OVC006 M07/M08 A3028 RMK AO2 CIG 005V009 SLP289 P0000 T10671078 FZRANO
KFNL 192124Z 06007KT 3SM UP BR OVC008 M07/M08 A3028 RMK AO2 P0000 FZRANO
KFNL 192115Z 05008KT 2 1/2SM UP BR OVC008 M07/M08 A3027 RMK AO2 P0000 FZRANO
KFNL 192056Z 06008KT 4SM UP BR OVC008 M07/M08 A3027 RMK AO2 UPB1958SNE1958 CIG 007V011 SLP287 P0000 60000 T10671083 58003 FZRANO
KFNL 192032Z 10007KT 9SM UP OVC008 M06/M07 A3028 RMK AO2 UPB1958SNE1958 CIG 006V013 P0000 FZRANO
KFNL 192018Z 10006KT 6SM UP BR OVC010 M06/M07 A3028 RMK AO2 UPB1958SNE1958 CIG 006V014 P0000 FZRANO
KFNL 191956Z 09007KT 7SM -SN OVC008 M06/M07 A3028 RMK AO2 UPE49SNB31E41B49 CIG 005V011 SLP287 P0000 T10611072 FZRANO
KFNL 191856Z 14007KT 090V300 5SM UP BR BKN005 OVC010 M06/M07 A3029 RMK AO2 SLP288 P0000 T10561067 FZRANO
KFNL 191837Z 11010KT 5SM UP BR OVC005 M06/M07 A3029 RMK AO2 CIG 005V008 P0000 FZRANO
KFNL 191820Z 09013G17KT 2SM UP BR OVC005 M05/M06 A3029 RMK AO2 VIS 1V4 CIG 004V009 P0000 FZRANO
KFNL 191815Z 12007KT 060V150 3SM UP BR OVC007 M05/M06 A3029 RMK AO2 CIG 004V009 P0000 FZRANO
KFNL 191811Z 10007KT 2 1/2SM UP BR OVC005 M05/M06 A3029 RMK AO2 VIS 1 1/4V4 CIG 004V009 P0000 FZRANO
KFNL 191756Z 11007KT 4SM UP BR BKN005 OVC009 M05/M06 A3029 RMK AO2 UPB20SNE20 SLP284 P0000 60000 T10501061 11028 21050 51024 FZRANO
KFNL 191656Z 11007KT 5SM -SN BR OVC005 M05/M06 A3027 RMK AO2 UPE49SNB37E46B49 CIG 004V007 SLP276 P0000 T10501061 FZRANO
KFNL 191556Z 11009KT 4SM UP BR OVC005 M04/M06 A3023 RMK AO2 CIG 004V009 SLP260 P0000 T10441056 FZRANO
KFNL 191456Z 11008KT 4SM UP BR OVC005 M04/M06 A3020 RMK AO2 SNB39E48 SLP249 P0000 60000 T10441056 53026 FZRANO
KFNL 191444Z 11009KT 3SM -SN BR OVC005 M04/M06 A3019 RMK AO2 UPE34SNB39 P0000 FZRANO
KFNL 191356Z 11009KT 4SM UP BR OVC003 M04/M05 A3017 RMK AO2 SLP236 P0000 T10391050 FZRANO
KFNL 191256Z 11009KT 3SM UP BR OVC003 M03/M04 A3014 RMK AO2 UPB56SNB27E56 SLP224 P0000 T10331044 FZRANO
KFNL 191156Z 14009KT 6SM BR OVC003 M03/M04 A3011 RMK AO2 SLP214 T10281039 10000 21028 53001 FZRANO
KFNL 191135Z 14007KT 8SM OVC003 M03/M04 A3011 RMK AO2 FZRANO
KFNL 191118Z 16007KT 10SM BKN005 OVC010 M02/M04 A3011 RMK AO2 FZRANO
KFNL 191107Z 13008KT 10SM SCT005 OVC010 M02/M04 A3011 RMK AO2 FZRANO
KFNL 191056Z 13009KT 10SM OVC010 M02/M04 A3011 RMK AO2 CIG 005V011 SLP210 T10221039 FZRANO
KFNL 191051Z 13008KT 10SM OVC010 M02/M04 A3011 RMK AO2 CIG 008V011 FZRANO
KFNL 191014Z 14009KT 10SM OVC008 M02/M03 A3011 RMK AO2 FZRANO
KFNL 190956Z 14010KT 10SM OVC010 M02/M03 A3011 RMK AO2 SLP209 T10171033 FZRANO
KFNL 190856Z 10006KT 10SM OVC012 M01/M03 A3009 RMK AO2 SLP198 T10111033 51023 FZRANO
KFNL 190822Z 07005KT 10SM OVC012 M01/M03 A3008 RMK AO2 FZRANO
KFNL 190756Z 04005KT 10SM OVC017 M01/M03 A3008 RMK AO2 SLP192 T10111033 FZRANO
KFNL 190745Z 04005KT 10SM BKN019 M01/M03 A3007 RMK AO2 FZRANO
KFNL 190656Z 03009KT 10SM CLR M01/M03 A3004 RMK AO2 SLP177 T10111033 400781022 FZRANO
KFNL 190556Z 06013KT 10SM CLR 00/M05 A3001 RMK AO2 SLP168 T00001050 10033 21006 53019 FZRANO
KFNL 190456Z VRB04KT 10SM FEW110 02/M08 A2997 RMK AO2 SLP152 T00171078 FZRANO
KFNL 190356Z VRB04KT 10SM BKN110 02/M08 A2995 RMK AO2 SLP149 T00171078 FZRANO
KFNL 190256Z 21003KT 10SM BKN100 02/M07 A2994 RMK AO2 SLP150 T00171072 51022 FZRANO
KFNL 190156Z 24007KT 10SM CLR 02/M06 A2992 RMK AO2 SLP144 T00171061 FZRANO
KFNL 190056Z 24004KT 10SM CLR 02/M05 A2990 RMK AO2 SLP133 T00221050 FZRANO
KFNL 182356Z 00000KT 10SM CLR 02/M04 A2987 RMK AO2 SLP123 T00221044 10078 20022 53017 FZRANO
KFNL 182256Z 02004KT 10SM CLR 03/M05 A2984 RMK AO2 SLP111 T00331050
KFNL 182156Z 11003KT 10SM CLR 04/M03 A2981 RMK AO2 SLP099 T00391033
KFNL 182056Z 21003KT 10SM CLR 04/M04 A2981 RMK AO2 SLP096 T00441044 55011
KFNL 181956Z 08007KT 10SM CLR 06/M06 A2981 RMK AO2 SLP091 T00561061
KFNL 181856Z 14005KT 10SM CLR 07/M07 A2982 RMK AO2 SLP094 T00671072
KFNL 181756Z 10006KT 10SM CLR 04/M04 A2985 RMK AO2 SLP109 T00441039 10056 21022 50005
KFNL 181656Z 05003KT 10SM CLR 03/M06 A2986 RMK AO2 SLP113 T00331056
KFNL 181556Z VRB04KT 10SM CLR 02/M06 A2984 RMK AO2 SLP112 T00221061 FZRANO
KFNL 181456Z 18006KT 10SM CLR 01/M06 A2983 RMK AO2 SLP107 T00061056 50007 FZRANO